Time;durP1;ratioP1;P1;durP2;ratioP2;P2;SDS_P1;SDS_P2;PMS_P1;PMS_P2;Temp;Humidity;BMP_temperature;BMP_pressure;BME280_temperature;BME280_humidity;BME280_pressure;Samples;Min_cycle;Max_cycle;Signal;HPM_P1;HPM_P2
2022/07/06 00:00:18;;;;;;;3.399999;2.5;;;;;;;16.89;78.14844;95790.17;;;;
2022/07/06 00:01:19;;;;;;;3.399999;2.5;;;;;;;16.89;78.14844;95790.17;;;;
2022/07/06 00:02:20;;;;;;;3.399999;2.5;;;;;;;16.89;78.14844;95790.17;;;;
2022/07/06 00:03:21;;;;;;;3.399999;2.5;;;;;;;16.89;78.14844;95790.17;;;;
2022/07/06 00:04:21;;;;;;;3.399999;2.5;;;;;;;16.89;78.14844;95790.17;;;;
2022/07/06 00:05:22;;;;;;;3.399999;2.5;;;;;;;16.89;78.14844;95790.17;;;;
2022/07/06 00:06:22;;;;;;;2.9;2.6;;;;;;;17.08;77.9082;95796.93;;;;
2022/07/06 00:07:23;;;;;;;2.9;2.6;;;;;;;17.08;77.9082;95796.93;;;;
2022/07/06 00:08:24;;;;;;;2.9;2.6;;;;;;;17.08;77.9082;95796.93;;;;
2022/07/06 00:09:25;;;;;;;2.9;2.6;;;;;;;17.08;77.9082;95796.93;;;;
2022/07/06 00:10:25;;;;;;;2.9;2.6;;;;;;;17.08;77.9082;95796.93;;;;
2022/07/06 00:11:26;;;;;;;2.9;2.6;;;;;;;17.08;77.9082;95796.93;;;;
2022/07/06 00:12:26;;;;;;;2.9;2.6;;;;;;;17.08;77.9082;95796.93;;;;
2022/07/06 00:13:27;;;;;;;2.9;2.6;;;;;;;17.08;77.9082;95796.93;;;;
2022/07/06 00:14:28;;;;;;;2.9;2.6;;;;;;;17.08;77.9082;95796.93;;;;
2022/07/06 00:15:28;;;;;;;2.9;2.6;;;;;;;17.08;77.9082;95796.93;;;;
2022/07/06 00:16:29;;;;;;;2.9;2.6;;;;;;;17.08;77.9082;95796.93;;;;
2022/07/06 00:17:30;;;;;;;2.65;2.45;;;;;;;17.1;77.69531;95787.61;;;;
2022/07/06 00:18:31;;;;;;;2.65;2.45;;;;;;;17.1;77.69531;95787.61;;;;
2022/07/06 00:19:31;;;;;;;2.65;2.45;;;;;;;17.1;77.69531;95787.61;;;;
2022/07/06 00:20:32;;;;;;;2.65;2.45;;;;;;;17.1;77.69531;95787.61;;;;
2022/07/06 00:21:33;;;;;;;2.65;2.45;;;;;;;17.1;77.69531;95787.61;;;;
2022/07/06 00:22:33;;;;;;;2.65;2.45;;;;;;;17.1;77.69531;95787.61;;;;
2022/07/06 00:23:34;;;;;;;2.65;2.45;;;;;;;17.1;77.69531;95787.61;;;;
2022/07/06 00:24:34;;;;;;;2.65;2.45;;;;;;;17.1;77.69531;95787.61;;;;
2022/07/06 00:25:35;;;;;;;2.65;2.45;;;;;;;17.1;77.69531;95787.61;;;;
2022/07/06 00:26:35;;;;;;;2.65;2.45;;;;;;;17.1;77.69531;95787.61;;;;
2022/07/06 00:27:36;;;;;;;2.65;2.45;;;;;;;17.1;77.69531;95787.61;;;;
2022/07/06 00:28:36;;;;;;;2.65;2.45;;;;;;;17.1;77.69531;95787.61;;;;
2022/07/06 00:29:37;;;;;;;2.65;2.45;;;;;;;17.1;77.69531;95787.61;;;;
2022/07/06 00:30:38;;;;;;;2.65;2.45;;;;;;;17.1;77.69531;95787.61;;;;
2022/07/06 00:31:38;;;;;;;2.65;2.45;;;;;;;17.1;77.69531;95787.61;;;;
2022/07/06 00:32:38;;;;;;;2.65;2.45;;;;;;;17.1;77.69531;95787.61;;;;
2022/07/06 00:33:39;;;;;;;2.65;2.45;;;;;;;17.1;77.69531;95787.61;;;;
2022/07/06 00:34:39;;;;;;;2.65;2.45;;;;;;;17.1;77.69531;95787.61;;;;
2022/07/06 00:35:40;;;;;;;2.65;2.45;;;;;;;17.1;77.69531;95787.61;;;;
2022/07/06 00:36:40;;;;;;;2.65;2.45;;;;;;;17.1;77.69531;95787.61;;;;
2022/07/06 00:37:41;;;;;;;2.65;2.45;;;;;;;17.1;77.69531;95787.61;;;;
2022/07/06 00:38:41;;;;;;;2.900001;2.7;;;;;;;16.71;78.08398;95794.35;;;;
2022/07/06 00:39:42;;;;;;;2.900001;2.7;;;;;;;16.71;78.08398;95794.35;;;;
2022/07/06 00:40:42;;;;;;;2.900001;2.7;;;;;;;16.71;78.08398;95794.35;;;;
2022/07/06 00:41:43;;;;;;;2.900001;2.7;;;;;;;16.71;78.08398;95794.35;;;;
2022/07/06 00:42:43;;;;;;;2.900001;2.7;;;;;;;16.71;78.08398;95794.35;;;;
2022/07/06 00:43:47;;;;;;;2.900001;2.7;;;;;;;16.71;78.08398;95794.35;;;;
2022/07/06 00:44:49;;;;;;;2.900001;2.7;;;;;;;16.71;78.08398;95794.35;;;;
2022/07/06 00:45:50;;;;;;;2.900001;2.7;;;;;;;16.71;78.08398;95794.35;;;;
2022/07/06 00:46:50;;;;;;;2.900001;2.7;;;;;;;16.71;78.08398;95794.35;;;;
2022/07/06 00:47:51;;;;;;;2.900001;2.7;;;;;;;16.71;78.08398;95794.35;;;;
2022/07/06 00:48:51;;;;;;;2.900001;2.7;;;;;;;16.71;78.08398;95794.35;;;;
2022/07/06 00:50:25;;;;;;;2.8;2.5;;;;;;;16.57;78.4082;95781.78;;;;
2022/07/06 00:51:26;;;;;;;2.8;2.5;;;;;;;16.57;78.4082;95781.78;;;;
2022/07/06 00:52:29;;;;;;;2.8;2.5;;;;;;;16.57;78.4082;95781.78;;;;
2022/07/06 00:53:30;;;;;;;2.8;2.5;;;;;;;16.57;78.4082;95781.78;;;;
2022/07/06 00:54:30;;;;;;;2.8;2.5;;;;;;;16.57;78.4082;95781.78;;;;
2022/07/06 00:55:32;;;;;;;2.8;2.5;;;;;;;16.57;78.4082;95781.78;;;;
2022/07/06 00:56:35;;;;;;;2.8;2.5;;;;;;;16.57;78.4082;95781.78;;;;
2022/07/06 00:57:36;;;;;;;2.8;2.5;;;;;;;16.57;78.4082;95781.78;;;;
2022/07/06 00:58:37;;;;;;;2.8;2.5;;;;;;;16.57;78.4082;95781.78;;;;
2022/07/06 00:59:38;;;;;;;2.8;2.5;;;;;;;16.57;78.4082;95781.78;;;;
2022/07/06 01:00:44;;;;;;;3.7;2.65;;;;;;;16.5;78.59277;95778.43;;;;
2022/07/06 01:01:45;;;;;;;3.7;2.65;;;;;;;16.5;78.59277;95778.43;;;;
2022/07/06 01:02:45;;;;;;;3.7;2.65;;;;;;;16.5;78.59277;95778.43;;;;
2022/07/06 01:03:47;;;;;;;3.7;2.65;;;;;;;16.5;78.59277;95778.43;;;;
2022/07/06 01:04:47;;;;;;;3.7;2.65;;;;;;;16.5;78.59277;95778.43;;;;
2022/07/06 01:05:48;;;;;;;3.7;2.65;;;;;;;16.5;78.59277;95778.43;;;;
2022/07/06 01:06:50;;;;;;;3.7;2.65;;;;;;;16.5;78.59277;95778.43;;;;
2022/07/06 01:07:51;;;;;;;3.7;2.65;;;;;;;16.5;78.59277;95778.43;;;;
2022/07/06 01:08:53;;;;;;;3.7;2.65;;;;;;;16.5;78.59277;95778.43;;;;
2022/07/06 01:09:54;;;;;;;3.7;2.65;;;;;;;16.5;78.59277;95778.43;;;;
2022/07/06 01:10:54;;;;;;;2.8;2.6;;;;;;;16.49;78.80859;95767.07;;;;
2022/07/06 01:11:55;;;;;;;2.8;2.6;;;;;;;16.49;78.80859;95767.07;;;;
2022/07/06 01:12:55;;;;;;;2.8;2.6;;;;;;;16.49;78.80859;95767.07;;;;
2022/07/06 01:13:57;;;;;;;2.8;2.6;;;;;;;16.49;78.80859;95767.07;;;;
2022/07/06 01:14:59;;;;;;;2.8;2.6;;;;;;;16.49;78.80859;95767.07;;;;
2022/07/06 01:16:01;;;;;;;2.8;2.6;;;;;;;16.49;78.80859;95767.07;;;;
2022/07/06 01:17:02;;;;;;;2.8;2.6;;;;;;;16.49;78.80859;95767.07;;;;
2022/07/06 01:18:03;;;;;;;2.8;2.6;;;;;;;16.49;78.80859;95767.07;;;;
2022/07/06 01:21:07;;;;;;;2.9;2.6;;;;;;;16.37;79.03809;95756.39;;;;
2022/07/06 01:22:09;;;;;;;2.9;2.6;;;;;;;16.37;79.03809;95756.39;;;;
2022/07/06 01:23:10;;;;;;;2.9;2.6;;;;;;;16.37;79.03809;95756.39;;;;
2022/07/06 01:24:11;;;;;;;2.9;2.6;;;;;;;16.37;79.03809;95756.39;;;;
2022/07/06 01:25:11;;;;;;;2.9;2.6;;;;;;;16.37;79.03809;95756.39;;;;
2022/07/06 01:26:12;;;;;;;2.9;2.6;;;;;;;16.37;79.03809;95756.39;;;;
2022/07/06 01:27:14;;;;;;;2.9;2.6;;;;;;;16.37;79.03809;95756.39;;;;
2022/07/06 01:28:15;;;;;;;2.9;2.6;;;;;;;16.37;79.03809;95756.39;;;;
2022/07/06 01:29:16;;;;;;;2.9;2.6;;;;;;;16.37;79.03809;95756.39;;;;
2022/07/06 01:30:17;;;;;;;2.9;2.6;;;;;;;16.37;79.03809;95756.39;;;;
2022/07/06 01:31:19;;;;;;;2.9;2.6;;;;;;;16.37;79.03809;95756.39;;;;
2022/07/06 01:32:21;;;;;;;3.05;2.6;;;;;;;16.21;79.34668;95749.11;;;;
2022/07/06 01:33:21;;;;;;;3.05;2.6;;;;;;;16.21;79.34668;95749.11;;;;
2022/07/06 01:34:22;;;;;;;3.05;2.6;;;;;;;16.21;79.34668;95749.11;;;;
2022/07/06 01:35:22;;;;;;;3.05;2.6;;;;;;;16.21;79.34668;95749.11;;;;
2022/07/06 01:36:26;;;;;;;3.05;2.6;;;;;;;16.21;79.34668;95749.11;;;;
2022/07/06 01:37:26;;;;;;;3.05;2.6;;;;;;;16.21;79.34668;95749.11;;;;
2022/07/06 01:38:27;;;;;;;3.05;2.6;;;;;;;16.21;79.34668;95749.11;;;;
2022/07/06 01:39:27;;;;;;;3.05;2.6;;;;;;;16.21;79.34668;95749.11;;;;
2022/07/06 01:40:28;;;;;;;3.05;2.6;;;;;;;16.21;79.34668;95749.11;;;;
2022/07/06 01:41:28;;;;;;;3.05;2.6;;;;;;;16.21;79.34668;95749.11;;;;
2022/07/06 01:42:29;;;;;;;4.25;2.7;;;;;;;15.97;79.69336;95750.34;;;;
2022/07/06 01:43:29;;;;;;;4.25;2.7;;;;;;;15.97;79.69336;95750.34;;;;
2022/07/06 01:44:30;;;;;;;4.25;2.7;;;;;;;15.97;79.69336;95750.34;;;;
2022/07/06 01:45:30;;;;;;;4.25;2.7;;;;;;;15.97;79.69336;95750.34;;;;
2022/07/06 01:46:31;;;;;;;4.25;2.7;;;;;;;15.97;79.69336;95750.34;;;;
2022/07/06 01:47:33;;;;;;;4.25;2.7;;;;;;;15.97;79.69336;95750.34;;;;
2022/07/06 01:48:33;;;;;;;4.25;2.7;;;;;;;15.97;79.69336;95750.34;;;;
2022/07/06 01:49:34;;;;;;;4.25;2.7;;;;;;;15.97;79.69336;95750.34;;;;
2022/07/06 01:50:34;;;;;;;4.25;2.7;;;;;;;15.97;79.69336;95750.34;;;;
2022/07/06 01:51:35;;;;;;;4.25;2.7;;;;;;;15.97;79.69336;95750.34;;;;
2022/07/06 01:52:35;;;;;;;4.25;2.7;;;;;;;15.97;79.69336;95750.34;;;;
2022/07/06 01:53:36;;;;;;;2.699999;2.4;;;;;;;15.8;80.02246;95761.71;;;;
2022/07/06 01:54:37;;;;;;;2.699999;2.4;;;;;;;15.8;80.02246;95761.71;;;;
2022/07/06 01:55:38;;;;;;;2.699999;2.4;;;;;;;15.8;80.02246;95761.71;;;;
2022/07/06 01:56:38;;;;;;;2.699999;2.4;;;;;;;15.8;80.02246;95761.71;;;;
2022/07/06 01:57:39;;;;;;;2.699999;2.4;;;;;;;15.8;80.02246;95761.71;;;;
2022/07/06 01:58:39;;;;;;;2.699999;2.4;;;;;;;15.8;80.02246;95761.71;;;;
2022/07/06 01:59:40;;;;;;;2.699999;2.4;;;;;;;15.8;80.02246;95761.71;;;;
2022/07/06 02:00:41;;;;;;;2.699999;2.4;;;;;;;15.8;80.02246;95761.71;;;;
2022/07/06 02:01:41;;;;;;;2.699999;2.4;;;;;;;15.8;80.02246;95761.71;;;;
2022/07/06 02:02:42;;;;;;;2.699999;2.4;;;;;;;15.8;80.02246;95761.71;;;;
2022/07/06 02:03:42;;;;;;;3.05;2.65;;;;;;;15.7;80.24512;95756.14;;;;
2022/07/06 02:04:43;;;;;;;3.05;2.65;;;;;;;15.7;80.24512;95756.14;;;;
2022/07/06 02:05:44;;;;;;;3.05;2.65;;;;;;;15.7;80.24512;95756.14;;;;
2022/07/06 02:06:45;;;;;;;3.05;2.65;;;;;;;15.7;80.24512;95756.14;;;;
2022/07/06 02:07:45;;;;;;;3.05;2.65;;;;;;;15.7;80.24512;95756.14;;;;
2022/07/06 02:08:46;;;;;;;3.05;2.65;;;;;;;15.7;80.24512;95756.14;;;;
2022/07/06 02:09:46;;;;;;;3.05;2.65;;;;;;;15.7;80.24512;95756.14;;;;
2022/07/06 02:10:47;;;;;;;3.05;2.65;;;;;;;15.7;80.24512;95756.14;;;;
2022/07/06 02:11:47;;;;;;;3.05;2.65;;;;;;;15.7;80.24512;95756.14;;;;
2022/07/06 02:12:48;;;;;;;3.05;2.65;;;;;;;15.7;80.24512;95756.14;;;;
2022/07/06 02:13:48;;;;;;;3.05;2.65;;;;;;;15.7;80.24512;95756.14;;;;
2022/07/06 02:14:49;;;;;;;3;2.7;;;;;;;15.63;80.37109;95756.87;;;;
2022/07/06 02:15:49;;;;;;;3;2.7;;;;;;;15.63;80.37109;95756.87;;;;
2022/07/06 02:16:50;;;;;;;3;2.7;;;;;;;15.63;80.37109;95756.87;;;;
2022/07/06 02:17:50;;;;;;;3;2.7;;;;;;;15.63;80.37109;95756.87;;;;
2022/07/06 02:18:51;;;;;;;3;2.7;;;;;;;15.63;80.37109;95756.87;;;;
2022/07/06 02:19:51;;;;;;;3;2.7;;;;;;;15.63;80.37109;95756.87;;;;
2022/07/06 02:20:52;;;;;;;3;2.7;;;;;;;15.63;80.37109;95756.87;;;;
2022/07/06 02:21:52;;;;;;;3;2.7;;;;;;;15.63;80.37109;95756.87;;;;
2022/07/06 02:22:53;;;;;;;3;2.7;;;;;;;15.63;80.37109;95756.87;;;;
2022/07/06 02:23:53;;;;;;;3;2.7;;;;;;;15.63;80.37109;95756.87;;;;
2022/07/06 02:24:54;;;;;;;3;2.7;;;;;;;15.63;80.37109;95756.87;;;;
2022/07/06 02:25:54;;;;;;;3.6;2.65;;;;;;;15.37;80.5625;95770.62;;;;
2022/07/06 02:26:55;;;;;;;3.6;2.65;;;;;;;15.37;80.5625;95770.62;;;;
2022/07/06 02:27:55;;;;;;;3.6;2.65;;;;;;;15.37;80.5625;95770.62;;;;
2022/07/06 02:28:56;;;;;;;3.6;2.65;;;;;;;15.37;80.5625;95770.62;;;;
2022/07/06 02:29:56;;;;;;;3.6;2.65;;;;;;;15.37;80.5625;95770.62;;;;
2022/07/06 02:30:57;;;;;;;3.6;2.65;;;;;;;15.37;80.5625;95770.62;;;;
2022/07/06 02:31:57;;;;;;;3.6;2.65;;;;;;;15.37;80.5625;95770.62;;;;
2022/07/06 02:32:58;;;;;;;3.6;2.65;;;;;;;15.37;80.5625;95770.62;;;;
2022/07/06 02:33:58;;;;;;;3.6;2.65;;;;;;;15.37;80.5625;95770.62;;;;
2022/07/06 02:34:59;;;;;;;3.6;2.65;;;;;;;15.37;80.5625;95770.62;;;;
2022/07/06 02:35:59;;;;;;;4.2;3.05;;;;;;;15.18;80.94238;95772.03;;;;
2022/07/06 02:37:00;;;;;;;4.2;3.05;;;;;;;15.18;80.94238;95772.03;;;;
2022/07/06 02:38:00;;;;;;;4.2;3.05;;;;;;;15.18;80.94238;95772.03;;;;
2022/07/06 02:39:01;;;;;;;4.2;3.05;;;;;;;15.18;80.94238;95772.03;;;;
2022/07/06 02:40:01;;;;;;;4.2;3.05;;;;;;;15.18;80.94238;95772.03;;;;
2022/07/06 02:41:02;;;;;;;4.2;3.05;;;;;;;15.18;80.94238;95772.03;;;;
2022/07/06 02:42:02;;;;;;;4.2;3.05;;;;;;;15.18;80.94238;95772.03;;;;
2022/07/06 02:43:03;;;;;;;4.2;3.05;;;;;;;15.18;80.94238;95772.03;;;;
2022/07/06 02:44:04;;;;;;;4.2;3.05;;;;;;;15.18;80.94238;95772.03;;;;
2022/07/06 02:45:04;;;;;;;4.2;3.05;;;;;;;15.18;80.94238;95772.03;;;;
2022/07/06 02:46:06;;;;;;;4.2;3.05;;;;;;;15.18;80.94238;95772.03;;;;
2022/07/06 02:47:06;;;;;;;3.3;3;;;;;;;14.97;81.34961;95772.55;;;;
2022/07/06 02:48:07;;;;;;;3.3;3;;;;;;;14.97;81.34961;95772.55;;;;
2022/07/06 02:49:07;;;;;;;3.3;3;;;;;;;14.97;81.34961;95772.55;;;;
2022/07/06 02:50:08;;;;;;;3.3;3;;;;;;;14.97;81.34961;95772.55;;;;
2022/07/06 02:51:09;;;;;;;3.3;3;;;;;;;14.97;81.34961;95772.55;;;;
2022/07/06 02:52:09;;;;;;;3.3;3;;;;;;;14.97;81.34961;95772.55;;;;
2022/07/06 02:53:10;;;;;;;3.3;3;;;;;;;14.97;81.34961;95772.55;;;;
2022/07/06 02:54:10;;;;;;;3.3;3;;;;;;;14.97;81.34961;95772.55;;;;
2022/07/06 02:55:11;;;;;;;3.3;3;;;;;;;14.97;81.34961;95772.55;;;;
2022/07/06 02:56:11;;;;;;;3.3;3;;;;;;;14.97;81.34961;95772.55;;;;
2022/07/06 02:57:12;;;;;;;3;2.7;;;;;;;14.88;81.75293;95775.34;;;;
2022/07/06 02:58:12;;;;;;;3;2.7;;;;;;;14.88;81.75293;95775.34;;;;
2022/07/06 02:59:13;;;;;;;3;2.7;;;;;;;14.88;81.75293;95775.34;;;;
2022/07/06 03:00:13;;;;;;;3;2.7;;;;;;;14.88;81.75293;95775.34;;;;
2022/07/06 03:01:14;;;;;;;3;2.7;;;;;;;14.88;81.75293;95775.34;;;;
2022/07/06 03:02:14;;;;;;;3;2.7;;;;;;;14.88;81.75293;95775.34;;;;
2022/07/06 03:03:15;;;;;;;3;2.7;;;;;;;14.88;81.75293;95775.34;;;;
2022/07/06 03:04:16;;;;;;;3;2.7;;;;;;;14.88;81.75293;95775.34;;;;
2022/07/06 03:05:16;;;;;;;3;2.7;;;;;;;14.88;81.75293;95775.34;;;;
2022/07/06 03:06:16;;;;;;;3;2.7;;;;;;;14.88;81.75293;95775.34;;;;
2022/07/06 03:07:17;;;;;;;3;2.7;;;;;;;14.88;81.75293;95775.34;;;;
2022/07/06 03:08:17;;;;;;;3.25;2.95;;;;;;;14.74;82.1084;95776.45;;;;
2022/07/06 03:09:18;;;;;;;3.25;2.95;;;;;;;14.74;82.1084;95776.45;;;;
2022/07/06 03:10:18;;;;;;;3.25;2.95;;;;;;;14.74;82.1084;95776.45;;;;
2022/07/06 03:11:19;;;;;;;3.25;2.95;;;;;;;14.74;82.1084;95776.45;;;;
2022/07/06 03:12:19;;;;;;;3.25;2.95;;;;;;;14.74;82.1084;95776.45;;;;
2022/07/06 03:13:20;;;;;;;3.25;2.95;;;;;;;14.74;82.1084;95776.45;;;;
2022/07/06 03:14:21;;;;;;;3.25;2.95;;;;;;;14.74;82.1084;95776.45;;;;
2022/07/06 03:15:21;;;;;;;3.25;2.95;;;;;;;14.74;82.1084;95776.45;;;;
2022/07/06 03:16:22;;;;;;;3.25;2.95;;;;;;;14.74;82.1084;95776.45;;;;
2022/07/06 03:17:22;;;;;;;3.25;2.95;;;;;;;14.74;82.1084;95776.45;;;;
2022/07/06 03:18:23;;;;;;;3.25;2.95;;;;;;;14.74;82.1084;95776.45;;;;
2022/07/06 03:19:23;;;;;;;5.3;2.8;;;;;;;14.74;82.36816;95793.33;;;;
2022/07/06 03:20:23;;;;;;;5.3;2.8;;;;;;;14.74;82.36816;95793.33;;;;
2022/07/06 03:21:24;;;;;;;5.3;2.8;;;;;;;14.74;82.36816;95793.33;;;;
2022/07/06 03:22:25;;;;;;;5.3;2.8;;;;;;;14.74;82.36816;95793.33;;;;
2022/07/06 03:23:25;;;;;;;5.3;2.8;;;;;;;14.74;82.36816;95793.33;;;;
2022/07/06 03:24:26;;;;;;;5.3;2.8;;;;;;;14.74;82.36816;95793.33;;;;
2022/07/06 03:25:26;;;;;;;5.3;2.8;;;;;;;14.74;82.36816;95793.33;;;;
2022/07/06 03:26:27;;;;;;;5.3;2.8;;;;;;;14.74;82.36816;95793.33;;;;
2022/07/06 03:27:27;;;;;;;5.3;2.8;;;;;;;14.74;82.36816;95793.33;;;;
2022/07/06 03:28:28;;;;;;;5.3;2.8;;;;;;;14.74;82.36816;95793.33;;;;
2022/07/06 03:29:28;;;;;;;3.05;2.85;;;;;;;14.7;82.48926;95783.78;;;;
2022/07/06 03:30:29;;;;;;;3.05;2.85;;;;;;;14.7;82.48926;95783.78;;;;
2022/07/06 03:31:29;;;;;;;3.05;2.85;;;;;;;14.7;82.48926;95783.78;;;;
2022/07/06 03:32:31;;;;;;;3.05;2.85;;;;;;;14.7;82.48926;95783.78;;;;
2022/07/06 03:33:32;;;;;;;3.05;2.85;;;;;;;14.7;82.48926;95783.78;;;;
2022/07/06 03:34:33;;;;;;;3.05;2.85;;;;;;;14.7;82.48926;95783.78;;;;
2022/07/06 03:35:33;;;;;;;3.05;2.85;;;;;;;14.7;82.48926;95783.78;;;;
2022/07/06 03:36:34;;;;;;;3.05;2.85;;;;;;;14.7;82.48926;95783.78;;;;
2022/07/06 03:37:34;;;;;;;3.05;2.85;;;;;;;14.7;82.48926;95783.78;;;;
2022/07/06 03:38:35;;;;;;;3.05;2.85;;;;;;;14.7;82.48926;95783.78;;;;
2022/07/06 03:39:36;;;;;;;3.05;2.85;;;;;;;14.7;82.48926;95783.78;;;;
2022/07/06 03:40:36;;;;;;;3.1;2.8;;;;;;;14.77;82.56836;95779.99;;;;
2022/07/06 03:41:36;;;;;;;3.1;2.8;;;;;;;14.77;82.56836;95779.99;;;;
2022/07/06 03:42:37;;;;;;;3.1;2.8;;;;;;;14.77;82.56836;95779.99;;;;
2022/07/06 03:43:38;;;;;;;3.1;2.8;;;;;;;14.77;82.56836;95779.99;;;;
2022/07/06 03:44:38;;;;;;;3.1;2.8;;;;;;;14.77;82.56836;95779.99;;;;
2022/07/06 03:45:39;;;;;;;3.1;2.8;;;;;;;14.77;82.56836;95779.99;;;;
2022/07/06 03:46:39;;;;;;;3.1;2.8;;;;;;;14.77;82.56836;95779.99;;;;
2022/07/06 03:47:40;;;;;;;3.1;2.8;;;;;;;14.77;82.56836;95779.99;;;;
2022/07/06 03:48:40;;;;;;;3.1;2.8;;;;;;;14.77;82.56836;95779.99;;;;
2022/07/06 03:49:41;;;;;;;3.1;2.8;;;;;;;14.77;82.56836;95779.99;;;;
2022/07/06 03:50:41;;;;;;;4.400001;3.1;;;;;;;14.76;82.74023;95785.94;;;;
2022/07/06 03:51:42;;;;;;;4.400001;3.1;;;;;;;14.76;82.74023;95785.94;;;;
2022/07/06 03:52:42;;;;;;;4.400001;3.1;;;;;;;14.76;82.74023;95785.94;;;;
2022/07/06 03:53:43;;;;;;;4.400001;3.1;;;;;;;14.76;82.74023;95785.94;;;;
2022/07/06 03:54:43;;;;;;;4.400001;3.1;;;;;;;14.76;82.74023;95785.94;;;;
2022/07/06 03:56:27;;;;;;;4.400001;3.1;;;;;;;14.76;82.74023;95785.94;;;;
2022/07/06 03:57:27;;;;;;;4.400001;3.1;;;;;;;14.76;82.74023;95785.94;;;;
2022/07/06 03:58:28;;;;;;;4.400001;3.1;;;;;;;14.76;82.74023;95785.94;;;;
2022/07/06 03:59:28;;;;;;;4.400001;3.1;;;;;;;14.76;82.74023;95785.94;;;;
2022/07/06 04:00:29;;;;;;;4.400001;3.1;;;;;;;14.76;82.74023;95785.94;;;;
2022/07/06 04:01:29;;;;;;;4.65;3.25;;;;;;;14.82;82.93555;95784.22;;;;
2022/07/06 04:02:30;;;;;;;4.65;3.25;;;;;;;14.82;82.93555;95784.22;;;;
2022/07/06 04:03:31;;;;;;;4.65;3.25;;;;;;;14.82;82.93555;95784.22;;;;
2022/07/06 04:04:31;;;;;;;4.65;3.25;;;;;;;14.82;82.93555;95784.22;;;;
2022/07/06 04:05:33;;;;;;;4.65;3.25;;;;;;;14.82;82.93555;95784.22;;;;
2022/07/06 04:06:34;;;;;;;4.65;3.25;;;;;;;14.82;82.93555;95784.22;;;;
2022/07/06 04:07:34;;;;;;;4.65;3.25;;;;;;;14.82;82.93555;95784.22;;;;
2022/07/06 04:08:35;;;;;;;4.65;3.25;;;;;;;14.82;82.93555;95784.22;;;;
2022/07/06 04:09:36;;;;;;;4.65;3.25;;;;;;;14.82;82.93555;95784.22;;;;
2022/07/06 04:10:36;;;;;;;4.65;3.25;;;;;;;14.82;82.93555;95784.22;;;;
2022/07/06 04:11:37;;;;;;;4.65;3.25;;;;;;;14.82;82.93555;95784.22;;;;
2022/07/06 04:12:37;;;;;;;3.4;3.1;;;;;;;14.82;83.12109;95793.02;;;;
2022/07/06 04:13:41;;;;;;;3.4;3.1;;;;;;;14.82;83.12109;95793.02;;;;
2022/07/06 04:14:42;;;;;;;3.4;3.1;;;;;;;14.82;83.12109;95793.02;;;;
2022/07/06 04:15:42;;;;;;;3.4;3.1;;;;;;;14.82;83.12109;95793.02;;;;
2022/07/06 04:16:43;;;;;;;3.4;3.1;;;;;;;14.82;83.12109;95793.02;;;;
2022/07/06 04:17:59;;;;;;;3.4;3.1;;;;;;;14.82;83.12109;95793.02;;;;
2022/07/06 04:18:59;;;;;;;3.4;3.1;;;;;;;14.82;83.12109;95793.02;;;;
2022/07/06 04:20:00;;;;;;;3.4;3.1;;;;;;;14.82;83.12109;95793.02;;;;
2022/07/06 04:21:00;;;;;;;3.4;3.1;;;;;;;14.82;83.12109;95793.02;;;;
2022/07/06 04:22:01;;;;;;;3.4;3.1;;;;;;;14.82;83.12109;95793.02;;;;
2022/07/06 04:23:01;;;;;;;3.400001;3.1;;;;;;;15.05;83.29199;95804.28;;;;
2022/07/06 04:24:02;;;;;;;3.400001;3.1;;;;;;;15.05;83.29199;95804.28;;;;
2022/07/06 04:25:03;;;;;;;3.400001;3.1;;;;;;;15.05;83.29199;95804.28;;;;
2022/07/06 04:26:05;;;;;;;3.400001;3.1;;;;;;;15.05;83.29199;95804.28;;;;
2022/07/06 04:27:06;;;;;;;3.400001;3.1;;;;;;;15.05;83.29199;95804.28;;;;
2022/07/06 04:28:06;;;;;;;3.400001;3.1;;;;;;;15.05;83.29199;95804.28;;;;
2022/07/06 04:29:07;;;;;;;3.400001;3.1;;;;;;;15.05;83.29199;95804.28;;;;
2022/07/06 04:30:07;;;;;;;3.400001;3.1;;;;;;;15.05;83.29199;95804.28;;;;
2022/07/06 04:31:09;;;;;;;3.400001;3.1;;;;;;;15.05;83.29199;95804.28;;;;
2022/07/06 04:32:10;;;;;;;3.400001;3.1;;;;;;;15.05;83.29199;95804.28;;;;
2022/07/06 04:33:11;;;;;;;3.45;3.15;;;;;;;15.48;83.1123;95807.15;;;;
2022/07/06 04:34:11;;;;;;;3.45;3.15;;;;;;;15.48;83.1123;95807.15;;;;
2022/07/06 04:35:12;;;;;;;3.45;3.15;;;;;;;15.48;83.1123;95807.15;;;;
2022/07/06 04:36:12;;;;;;;3.45;3.15;;;;;;;15.48;83.1123;95807.15;;;;
2022/07/06 04:37:13;;;;;;;3.45;3.15;;;;;;;15.48;83.1123;95807.15;;;;
2022/07/06 04:38:13;;;;;;;3.45;3.15;;;;;;;15.48;83.1123;95807.15;;;;
2022/07/06 04:39:14;;;;;;;3.45;3.15;;;;;;;15.48;83.1123;95807.15;;;;
2022/07/06 04:40:14;;;;;;;3.45;3.15;;;;;;;15.48;83.1123;95807.15;;;;
2022/07/06 04:41:16;;;;;;;3.45;3.15;;;;;;;15.48;83.1123;95807.15;;;;
2022/07/06 04:42:16;;;;;;;3.45;3.15;;;;;;;15.48;83.1123;95807.15;;;;
2022/07/06 04:43:16;;;;;;;3.45;3.15;;;;;;;15.48;83.1123;95807.15;;;;
2022/07/06 04:44:17;;;;;;;3.7;3.4;;;;;;;15.93;82.8291;95801.57;;;;
2022/07/06 04:45:17;;;;;;;3.7;3.4;;;;;;;15.93;82.8291;95801.57;;;;
2022/07/06 04:46:19;;;;;;;3.7;3.4;;;;;;;15.93;82.8291;95801.57;;;;
2022/07/06 04:47:19;;;;;;;3.7;3.4;;;;;;;15.93;82.8291;95801.57;;;;
2022/07/06 04:48:20;;;;;;;3.7;3.4;;;;;;;15.93;82.8291;95801.57;;;;
2022/07/06 04:49:20;;;;;;;3.7;3.4;;;;;;;15.93;82.8291;95801.57;;;;
2022/07/06 04:50:21;;;;;;;3.7;3.4;;;;;;;15.93;82.8291;95801.57;;;;
2022/07/06 04:51:21;;;;;;;3.7;3.4;;;;;;;15.93;82.8291;95801.57;;;;
2022/07/06 04:52:22;;;;;;;3.7;3.4;;;;;;;15.93;82.8291;95801.57;;;;
2022/07/06 04:53:22;;;;;;;3.7;3.4;;;;;;;15.93;82.8291;95801.57;;;;
2022/07/06 04:54:23;;;;;;;3.7;3.4;;;;;;;15.93;82.8291;95801.57;;;;
2022/07/06 04:55:23;;;;;;;3.5;3.2;;;;;;;16.35;82.63672;95815.06;;;;
2022/07/06 04:56:24;;;;;;;3.5;3.2;;;;;;;16.35;82.63672;95815.06;;;;
2022/07/06 04:57:25;;;;;;;3.5;3.2;;;;;;;16.35;82.63672;95815.06;;;;
2022/07/06 04:58:26;;;;;;;3.5;3.2;;;;;;;16.35;82.63672;95815.06;;;;
2022/07/06 04:59:27;;;;;;;3.5;3.2;;;;;;;16.35;82.63672;95815.06;;;;
2022/07/06 05:00:27;;;;;;;3.5;3.2;;;;;;;16.35;82.63672;95815.06;;;;
2022/07/06 05:01:28;;;;;;;3.5;3.2;;;;;;;16.35;82.63672;95815.06;;;;
2022/07/06 05:02:28;;;;;;;3.5;3.2;;;;;;;16.35;82.63672;95815.06;;;;
2022/07/06 05:03:29;;;;;;;3.5;3.2;;;;;;;16.35;82.63672;95815.06;;;;
2022/07/06 05:04:29;;;;;;;3.5;3.2;;;;;;;16.35;82.63672;95815.06;;;;
2022/07/06 05:05:30;;;;;;;3.5;3.2;;;;;;;16.76;82.54785;95805.13;;;;
2022/07/06 05:06:30;;;;;;;3.5;3.2;;;;;;;16.76;82.54785;95805.13;;;;
2022/07/06 05:07:33;;;;;;;3.5;3.2;;;;;;;16.76;82.54785;95805.13;;;;
2022/07/06 05:08:33;;;;;;;3.5;3.2;;;;;;;16.76;82.54785;95805.13;;;;
2022/07/06 05:09:34;;;;;;;3.5;3.2;;;;;;;16.76;82.54785;95805.13;;;;
2022/07/06 05:10:34;;;;;;;3.5;3.2;;;;;;;16.76;82.54785;95805.13;;;;
2022/07/06 05:11:35;;;;;;;3.5;3.2;;;;;;;16.76;82.54785;95805.13;;;;
2022/07/06 05:12:35;;;;;;;3.5;3.2;;;;;;;16.76;82.54785;95805.13;;;;
2022/07/06 05:13:36;;;;;;;3.5;3.2;;;;;;;16.76;82.54785;95805.13;;;;
2022/07/06 05:14:37;;;;;;;3.5;3.2;;;;;;;16.76;82.54785;95805.13;;;;
2022/07/06 05:15:38;;;;;;;3.5;3.2;;;;;;;16.76;82.54785;95805.13;;;;
2022/07/06 05:16:39;;;;;;;3.1;2.9;;;;;;;17.2;82.13965;95813.33;;;;
2022/07/06 05:17:39;;;;;;;3.1;2.9;;;;;;;17.2;82.13965;95813.33;;;;
2022/07/06 05:18:40;;;;;;;3.1;2.9;;;;;;;17.2;82.13965;95813.33;;;;
2022/07/06 05:19:40;;;;;;;3.1;2.9;;;;;;;17.2;82.13965;95813.33;;;;
2022/07/06 05:20:41;;;;;;;3.1;2.9;;;;;;;17.2;82.13965;95813.33;;;;
2022/07/06 05:21:41;;;;;;;3.1;2.9;;;;;;;17.2;82.13965;95813.33;;;;
2022/07/06 05:22:42;;;;;;;3.1;2.9;;;;;;;17.2;82.13965;95813.33;;;;
2022/07/06 05:23:42;;;;;;;3.1;2.9;;;;;;;17.2;82.13965;95813.33;;;;
2022/07/06 05:24:42;;;;;;;3.1;2.9;;;;;;;17.2;82.13965;95813.33;;;;
2022/07/06 05:25:43;;;;;;;3.1;2.9;;;;;;;17.2;82.13965;95813.33;;;;
2022/07/06 05:26:44;;;;;;;4.349999;2.9;;;;;;;17.65;82.03711;95814.54;;;;
2022/07/06 05:27:44;;;;;;;4.349999;2.9;;;;;;;17.65;82.03711;95814.54;;;;
2022/07/06 05:28:45;;;;;;;4.349999;2.9;;;;;;;17.65;82.03711;95814.54;;;;
2022/07/06 05:29:45;;;;;;;4.349999;2.9;;;;;;;17.65;82.03711;95814.54;;;;
2022/07/06 05:30:46;;;;;;;4.349999;2.9;;;;;;;17.65;82.03711;95814.54;;;;
2022/07/06 05:31:46;;;;;;;4.349999;2.9;;;;;;;17.65;82.03711;95814.54;;;;
2022/07/06 05:32:47;;;;;;;4.349999;2.9;;;;;;;17.65;82.03711;95814.54;;;;
2022/07/06 05:33:47;;;;;;;4.349999;2.9;;;;;;;17.65;82.03711;95814.54;;;;
2022/07/06 05:34:48;;;;;;;4.349999;2.9;;;;;;;17.65;82.03711;95814.54;;;;
2022/07/06 05:35:50;;;;;;;4.349999;2.9;;;;;;;17.65;82.03711;95814.54;;;;
2022/07/06 05:36:50;;;;;;;4.349999;2.9;;;;;;;17.65;82.03711;95814.54;;;;
2022/07/06 05:37:51;;;;;;;2.8;2.55;;;;;;;17.98;81.50781;95819.47;;;;
2022/07/06 05:38:51;;;;;;;2.8;2.55;;;;;;;17.98;81.50781;95819.47;;;;
2022/07/06 05:39:52;;;;;;;2.8;2.55;;;;;;;17.98;81.50781;95819.47;;;;
2022/07/06 05:40:52;;;;;;;2.8;2.55;;;;;;;17.98;81.50781;95819.47;;;;
2022/07/06 05:41:53;;;;;;;2.8;2.55;;;;;;;17.98;81.50781;95819.47;;;;
2022/07/06 05:42:53;;;;;;;2.8;2.55;;;;;;;17.98;81.50781;95819.47;;;;
2022/07/06 05:43:54;;;;;;;2.8;2.55;;;;;;;17.98;81.50781;95819.47;;;;
2022/07/06 05:44:54;;;;;;;2.8;2.55;;;;;;;17.98;81.50781;95819.47;;;;
2022/07/06 05:45:55;;;;;;;2.8;2.55;;;;;;;17.98;81.50781;95819.47;;;;
2022/07/06 05:50:11;;;;;;;2.8;2.55;;;;;;;17.98;81.50781;95819.47;;;;
2022/07/06 05:51:12;;;;;;;3.05;2.5;;;;;;;18.26;81.13574;95829.14;;;;
2022/07/06 05:52:13;;;;;;;3.05;2.5;;;;;;;18.26;81.13574;95829.14;;;;
2022/07/06 05:53:13;;;;;;;3.05;2.5;;;;;;;18.26;81.13574;95829.14;;;;
2022/07/06 05:54:14;;;;;;;3.05;2.5;;;;;;;18.26;81.13574;95829.14;;;;
2022/07/06 05:55:14;;;;;;;3.05;2.5;;;;;;;18.26;81.13574;95829.14;;;;